Devils Lake, ND

1:16 AM CDT on July 23, 2014 (GMT -0500)
Devils Lake Municipal (KDVL) Elev 1453 ft | 48.11 °N, 98.91 °W | Change Station

Current weather conditions updated 21 minutes ago

Scattered Clouds
Scattered Clouds
66 °F
Feels Like 66 °F
N
7
Wind Variable Wind from ESE

Today is forecast to be Warmer than yesterday.

Today
High -- | Low -- °F
--% Chance of Precip.
Yesterday
High -- | Low -- °F
Precip. -- in
6:00 AM 9:22 PM
Waning Crescent, 12% visible
Pressure 30.27 in
Visibility 10.0 miles
Clouds Scattered Clouds 6000 ft
Scattered Clouds 6500 ft
Dew Point 57 °F
Humidity 73%
Rainfall 0.00 in
Snow Depth Not available.
UV 0 out of 12
Pollen 4.00 out of 12
Air Quality Not available.
Flu Activity Not available.
METAR KDVL 230555Z AUTO 11006KT 10SM SCT060 SCT065 19/14 A3027 RMK AO1 10240 20190 52014

More Conditions Fewer Conditions

Pressure 30.27 in
Visibility 10.0 miles
Clouds Scattered Clouds 6000 ft
Scattered Clouds 6500 ft
Dew Point 57 °F
Humidity 73%
Rainfall 0.00 in
Snow Depth Not available.
UV 0 out of 12
Pollen 4.00 out of 12
Air Quality Not available.
Flu Activity Not available.
METAR KDVL 230555Z AUTO 11006KT 10SM SCT060 SCT065 19/14 A3027 RMK AO1 10240 20190 52014

More Conditions Fewer Conditions

10-Day Weather Forecast

Almanac

Astronomy

Jul. 23, 2014 Rise Set
Actual Time 6:00 AM CDT 9:22 PM CDT
Civil Twilight 5:21 AM CDT 10:00 PM CDT
Nautical Twilight 4:31 AM CDT 10:51 PM CDT
Astronomical Twilight 3:25 AM CDT 11:56 PM CDT
Moon 3:22 AM CDT 6:51 PM CDT
Length of Visible Light 16h 38m
Length of Day
15h 22m
Tomorrow will be 2m 21s shorter.
Waning Crescent, 12% of the Moon is Illuminated
Today
Waning Crescent
Jul 26
New
Aug 3
First Quarter
Aug 10
Full
Aug 17
Last Quarter

Today's Extremes

State Highs State Lows

Community

WunderPhotos

Upload Photos

1,736,515 photos uploaded!

Nearby

Snow Depth

Station Depth Elevation
No new snow has been reported.

Earthquake Activity

City Distance Mag. Time & Date
No recent earthquake activity has been reported nearby.
Minimum magnitude displayed is 2.5.

Coastal Water Temperatures

Place Temperature
No Stations Reporting

Nearby Weather Stations

Station Location Temp. Dew Point Humidity Wind Precip. Elev Updated Type
RAWS DEVILS LAKE ND, Fort Totten, ND 67 °F 60 °F 79% ESE  at  5 mph 0.00 in / hr 1529 ft 11:51 PM CDT MADIS

Show More Stations Show Fewer Stations